Fort Worth Meacham International Airport Fort Worth US
ICAO: KFTW
IATA: FTW
Category: Large
Scheduled Services: No

Elevation: 710 ft
TransAlt. 18000 ft.

Airport Communications:
RGNL APP DEP:118.1
ATIS:120.7
CLNC DEL:124.65
GND:121.9
FORT WORTH RDO:122.6
TWR:118.3
UNICOM:122.95

KFTW Zoom In..

Runways:

(A) RW 09 length 3677 ft width 100 ft
---- / hdg 92

(B) RW 16 length 7502 ft width 150 ft
ILS 109.90 / hdg 164

(C) RW 17 length 4005 ft width 75 ft
---- / hdg 164

(D) RW 27 length 3677 ft width 100 ft
---- / hdg 272

(E) RW 34 length 7502 ft width 150 ft
ILS 109.90 / hdg 344

(F) RW 35 length 4005 ft width 75 ft
---- / hdg 344

Location; KFTW
Day. 22 / Time. 01.53 Zulu
* Altimeter: 29.94
* Temperature: 28° c. 82.4°f.
* Wind from: 150° Speed 08 kn.
Dewpoint: 21° c.
Visibility: 10 Statute Miles.
Clouds: Clear (automated report).

KFTW 220153Z 15008KT 10SM CLR 28/21 A2994 RMK AO2 SLP130 T02780206


Wind From 150°
Speed 08 kn.

 
 
jpsmedia.com for Web Design SOUNDCLOUD worldairports.se 2018   terms of use